createdAt,value
2022-11-25T00:01:08.312Z,13.40
2022-11-25T00:03:35.916Z,12.63
2022-11-25T00:06:09.779Z,13.53
2022-11-25T00:08:37.339Z,16.57
2022-11-25T00:11:05.262Z,7.37
2022-11-25T00:13:32.708Z,14.50
2022-11-25T00:16:04.878Z,8.70
2022-11-25T00:18:34.652Z,14.53
2022-11-25T00:21:09.921Z,8.93
2022-11-25T00:23:37.435Z,9.83
2022-11-25T00:26:12.376Z,17.03
2022-11-25T00:28:40.391Z,12.87
2022-11-25T00:31:19.386Z,10.47
2022-11-25T00:33:47.177Z,10.70
2022-11-25T00:36:20.065Z,14.80
2022-11-25T00:38:47.614Z,10.87
2022-11-25T00:41:33.151Z,9.87
2022-11-25T00:44:18.717Z,13.47
2022-11-25T00:46:45.613Z,18.63
2022-11-25T00:49:12.597Z,7.53
2022-11-25T00:51:39.363Z,14.87
2022-11-25T00:54:06.254Z,9.60
2022-11-25T00:56:33.082Z,13.63
2022-11-25T00:58:59.792Z,9.27
2022-11-25T01:01:27.033Z,10.00
2022-11-25T01:03:54.135Z,12.50
2022-11-25T01:06:22.215Z,14.17
2022-11-25T01:08:49.152Z,12.83
2022-11-25T01:11:18.419Z,12.87
2022-11-25T01:13:45.657Z,8.40
2022-11-25T01:16:17.976Z,13.23
2022-11-25T01:18:45.005Z,10.97
2022-11-25T01:21:21.543Z,13.67
2022-11-25T01:23:48.653Z,12.37
2022-11-25T01:26:23.851Z,15.73
2022-11-25T01:28:54.860Z,10.87
2022-11-25T01:31:25.277Z,15.17
2022-11-25T01:33:58.829Z,13.30
2022-11-25T01:36:26.532Z,15.03
2022-11-25T01:38:56.265Z,11.13
2022-11-25T01:41:28.321Z,11.37
2022-11-25T01:44:19.062Z,12.17
2022-11-25T01:46:51.454Z,12.17
2022-11-25T01:49:35.079Z,15.83
2022-11-25T01:52:09.243Z,8.47
2022-11-25T01:54:42.508Z,12.20
2022-11-25T01:57:15.357Z,14.37
2022-11-25T01:59:49.564Z,13.47
2022-11-25T02:02:17.800Z,12.60
2022-11-25T02:04:46.588Z,13.53
2022-11-25T02:07:36.946Z,15.00
2022-11-25T02:10:07.952Z,14.60
2022-11-25T02:12:36.975Z,12.63
2022-11-25T02:15:04.990Z,12.07
2022-11-25T02:17:31.788Z,13.57
2022-11-25T02:20:13.193Z,11.50
2022-11-25T02:23:06.948Z,6.47
2022-11-25T02:25:39.720Z,9.90
2022-11-25T02:28:24.977Z,17.87
2022-11-25T02:30:52.377Z,14.70
2022-11-25T02:33:19.885Z,9.47
2022-11-25T02:35:55.831Z,11.57
2022-11-25T02:38:37.956Z,13.83
2022-11-25T02:41:19.484Z,7.70
2022-11-25T02:43:46.356Z,11.33
2022-11-25T02:46:22.097Z,9.23
2022-11-25T02:51:38.117Z,7.63
2022-11-25T02:54:08.187Z,5.60
2022-11-25T02:56:38.665Z,5.40
2022-11-25T02:59:06.001Z,11.43
2022-11-25T03:01:33.276Z,6.50
2022-11-25T03:04:00.766Z,3.07
2022-11-25T03:06:31.298Z,10.47
2022-11-25T03:08:58.331Z,7.70
2022-11-25T03:11:43.862Z,10.40
2022-11-25T03:14:10.612Z,7.27
2022-11-25T03:16:40.021Z,2.87
2022-11-25T03:19:06.991Z,7.43
2022-11-25T03:21:34.027Z,7.13
2022-11-25T03:24:00.726Z,7.57
2022-11-25T03:26:30.516Z,7.57
2022-11-25T03:28:57.242Z,10.10
2022-11-25T03:31:25.285Z,7.40
2022-11-25T03:33:52.144Z,6.93
2022-11-25T03:36:18.833Z,3.80
2022-11-25T03:38:45.597Z,6.03
2022-11-25T03:41:12.282Z,4.10
2022-11-25T03:43:39.149Z,5.03
2022-11-25T03:46:08.809Z,8.70
2022-11-25T03:48:35.646Z,6.57
2022-11-25T03:51:02.416Z,11.07
2022-11-25T03:53:29.127Z,8.03
2022-11-25T03:55:55.911Z,6.43
2022-11-25T03:58:25.839Z,7.20
2022-11-25T04:00:52.660Z,7.43
2022-11-25T04:03:19.391Z,7.13
2022-11-25T04:05:46.201Z,4.73
2022-11-25T04:08:16.112Z,7.87
2022-11-25T04:10:42.867Z,5.40
2022-11-25T04:13:09.572Z,4.87
2022-11-25T04:15:36.476Z,8.03
2022-11-25T04:18:03.353Z,7.37
2022-11-25T04:20:30.060Z,7.60
2022-11-25T04:22:56.808Z,7.30
2022-11-25T04:25:23.551Z,7.20
2022-11-25T04:27:50.383Z,3.97
2022-11-25T04:30:17.275Z,4.47
2022-11-25T04:32:43.998Z,8.80
2022-11-25T04:35:11.073Z,4.13
2022-11-25T04:37:37.764Z,6.63
2022-11-25T04:40:05.660Z,8.67
2022-11-25T04:42:32.444Z,3.57
2022-11-25T04:45:22.632Z,5.57
2022-11-25T04:47:51.387Z,5.30
2022-11-25T04:50:24.101Z,7.00
2022-11-25T04:52:50.997Z,5.10
2022-11-25T04:55:17.823Z,7.37
2022-11-25T04:57:44.563Z,2.50
2022-11-25T05:00:14.343Z,1.67
2022-11-25T05:02:41.919Z,1.83
2022-11-25T05:05:08.882Z,3.93
2022-11-25T05:07:35.811Z,5.23
2022-11-25T05:10:02.810Z,3.03
2022-11-25T05:12:29.876Z,2.40
2022-11-25T05:14:57.094Z,2.27
2022-11-25T05:17:30.029Z,6.70
2022-11-25T05:19:57.502Z,2.53
2022-11-25T05:22:30.178Z,2.73
2022-11-25T05:24:57.565Z,4.40
2022-11-25T05:27:25.063Z,4.30
2022-11-25T05:29:55.922Z,3.37
2022-11-25T05:32:23.189Z,4.97
2022-11-25T05:34:49.932Z,3.37
2022-11-25T05:37:21.134Z,3.43
2022-11-25T05:39:50.974Z,3.67
2022-11-25T05:42:17.842Z,3.63
2022-11-25T05:44:44.521Z,4.23
2022-11-25T05:47:11.221Z,2.23
2022-11-25T05:49:37.903Z,4.17
2022-11-25T05:52:04.821Z,4.67
2022-11-25T05:54:31.683Z,2.57
2022-11-25T05:57:00.418Z,2.80
2022-11-25T05:59:27.269Z,4.03
2022-11-25T06:01:54.386Z,4.50
2022-11-25T06:04:24.176Z,3.17
2022-11-25T06:06:50.844Z,3.30
2022-11-25T06:09:17.750Z,6.97
2022-11-25T06:11:44.683Z,4.90
2022-11-25T06:14:11.351Z,4.73
2022-11-25T06:16:38.212Z,5.80
2022-11-25T06:19:06.668Z,5.57
2022-11-25T06:21:33.788Z,5.10
2022-11-25T06:24:00.963Z,4.97
2022-11-25T06:26:27.664Z,2.83
2022-11-25T06:28:56.053Z,5.53
2022-11-25T06:31:25.528Z,5.97
2022-11-25T06:33:53.789Z,4.57
2022-11-25T06:36:22.348Z,4.97
2022-11-25T06:38:51.777Z,7.93
2022-11-25T06:41:19.353Z,4.30
2022-11-25T06:43:46.174Z,5.07
2022-11-25T06:46:24.132Z,2.30
2022-11-25T06:48:51.782Z,3.60
2022-11-25T06:51:18.981Z,7.67
2022-11-25T06:53:46.156Z,7.80
2022-11-25T06:56:24.946Z,6.33
2022-11-25T06:58:53.499Z,6.33
2022-11-25T07:01:21.636Z,7.50
2022-11-25T07:03:55.031Z,5.33
2022-11-25T07:06:22.605Z,6.30
2022-11-25T07:08:52.856Z,7.73
2022-11-25T07:11:20.939Z,8.90
2022-11-25T07:13:51.033Z,10.40
2022-11-25T07:16:17.789Z,5.00
2022-11-25T07:18:44.728Z,10.20
2022-11-25T07:21:25.159Z,8.43
2022-11-25T07:23:53.127Z,7.97
2022-11-25T07:26:39.491Z,4.93
2022-11-25T07:31:59.203Z,7.93
2022-11-25T07:34:25.881Z,6.90
2022-11-25T07:36:52.577Z,8.47
2022-11-25T07:39:22.446Z,7.60
2022-11-25T07:41:54.211Z,10.00
2022-11-25T07:44:21.547Z,5.77
2022-11-25T07:46:49.990Z,4.07
2022-11-25T07:49:22.113Z,6.10
2022-11-25T07:51:57.633Z,6.90
2022-11-25T07:54:25.444Z,10.07
2022-11-25T07:56:52.764Z,5.53
2022-11-25T07:59:21.607Z,10.77
2022-11-25T08:01:55.951Z,6.50
2022-11-25T08:04:24.653Z,7.63
2022-11-25T08:06:52.778Z,7.10
2022-11-25T08:09:22.117Z,4.47
2022-11-25T08:11:49.737Z,7.77
2022-11-25T08:14:17.353Z,7.00
2022-11-25T08:16:44.427Z,6.03
2022-11-25T08:19:17.107Z,9.43
2022-11-25T08:21:44.177Z,8.53
2022-11-25T08:24:19.991Z,10.97
2022-11-25T08:26:47.177Z,10.13
2022-11-25T08:29:20.896Z,6.83
2022-11-25T08:31:47.818Z,7.90
2022-11-25T08:34:23.895Z,6.80
2022-11-25T08:36:51.727Z,9.77
2022-11-25T08:39:50.429Z,7.93
2022-11-25T08:42:08.273Z,6.17
2022-11-25T08:44:35.890Z,9.80
2022-11-25T08:47:02.789Z,5.33
2022-11-25T08:49:37.538Z,9.17
2022-11-25T08:52:07.653Z,4.90
2022-11-25T08:54:34.445Z,7.43
2022-11-25T08:57:01.163Z,9.33
2022-11-25T08:59:28.585Z,7.50
2022-11-25T09:01:55.645Z,3.93
2022-11-25T09:04:25.505Z,6.60
2022-11-25T09:06:52.279Z,7.67
2022-11-25T09:09:22.098Z,8.40
2022-11-25T09:11:49.195Z,7.93
2022-11-25T09:14:19.145Z,7.43
2022-11-25T09:16:46.020Z,11.60
2022-11-25T09:19:15.610Z,7.27
2022-11-25T09:21:44.378Z,9.93
2022-11-25T09:24:11.234Z,11.20
2022-11-25T09:26:41.007Z,9.60
2022-11-25T09:29:08.186Z,13.57
2022-11-25T09:31:36.881Z,13.73
2022-11-25T09:34:03.937Z,10.20
2022-11-25T09:36:30.772Z,7.77
2022-11-25T09:38:57.560Z,7.07
2022-11-25T09:42:24.727Z,10.10
2022-11-25T09:45:51.417Z,7.47
2022-11-25T09:48:37.208Z,5.93
2022-11-25T09:51:27.024Z,10.10
2022-11-25T09:53:57.136Z,9.87
2022-11-25T09:56:34.902Z,7.80
2022-11-25T09:59:19.026Z,6.43
2022-11-25T10:02:03.190Z,7.83
2022-11-25T10:04:43.313Z,7.23
2022-11-25T10:07:20.822Z,7.70
2022-11-25T10:09:49.731Z,7.27
2022-11-25T10:12:27.154Z,8.10
2022-11-25T10:15:03.725Z,7.20
2022-11-25T10:17:33.409Z,6.77
2022-11-25T10:20:06.510Z,9.97
2022-11-25T10:22:36.770Z,6.50
2022-11-25T10:25:23.522Z,5.97
2022-11-25T10:28:04.105Z,10.27
2022-11-25T10:30:52.015Z,7.03
2022-11-25T10:33:21.660Z,6.70
2022-11-25T10:36:06.649Z,6.10
2022-11-25T10:38:49.963Z,5.80
2022-11-25T10:41:20.982Z,6.23
2022-11-25T10:43:48.564Z,7.10
2022-11-25T10:46:57.064Z,8.73
2022-11-25T10:49:34.104Z,9.20
2022-11-25T10:52:01.028Z,8.87
2022-11-25T10:54:31.529Z,9.23
2022-11-25T10:57:02.690Z,6.10
2022-11-25T10:59:36.138Z,10.20
2022-11-25T11:02:19.432Z,6.33
2022-11-25T11:04:57.568Z,6.23
2022-11-25T11:07:26.811Z,7.90
2022-11-25T11:09:53.927Z,6.13
2022-11-25T11:12:33.839Z,7.33
2022-11-25T11:15:20.656Z,5.80
2022-11-25T11:17:48.612Z,8.33
2022-11-25T11:20:25.527Z,6.23
2022-11-25T11:23:08.838Z,7.17
2022-11-25T11:25:39.059Z,5.97
2022-11-25T11:28:29.057Z,5.70
2022-11-25T11:31:16.208Z,2.90
2022-11-25T11:33:57.861Z,7.60
2022-11-25T11:36:54.582Z,10.53
2022-11-25T11:39:50.152Z,10.90
2022-11-25T11:42:40.614Z,7.10
2022-11-25T11:45:27.741Z,7.27
2022-11-25T11:48:25.220Z,6.17
2022-11-25T11:51:14.771Z,10.73
2022-11-25T11:53:55.126Z,8.83
2022-11-25T11:56:35.275Z,6.13
2022-11-25T11:59:26.932Z,7.03
2022-11-25T12:02:31.060Z,8.80
2022-11-25T12:05:09.821Z,7.73
2022-11-25T12:07:48.605Z,6.97
2022-11-25T12:10:15.326Z,7.50
2022-11-25T12:13:07.882Z,6.93
2022-11-25T12:15:55.098Z,8.87
2022-11-25T12:18:35.057Z,8.97
2022-11-25T12:21:08.557Z,9.00
2022-11-25T12:23:41.239Z,8.00
2022-11-25T12:26:34.440Z,8.43
2022-11-25T12:29:08.503Z,8.87
2022-11-25T12:31:43.898Z,8.77
2022-11-25T12:34:31.145Z,7.87
2022-11-25T12:37:13.443Z,8.07
2022-11-25T12:40:00.755Z,8.33
2022-11-25T12:42:31.139Z,7.10
2022-11-25T12:45:04.063Z,7.70
2022-11-25T12:47:31.030Z,9.60
2022-11-25T12:49:58.387Z,10.63
2022-11-25T12:52:40.296Z,8.83
2022-11-25T12:55:14.933Z,9.30
2022-11-25T12:57:49.436Z,13.47
2022-11-25T13:00:54.587Z,11.70
2022-11-25T13:03:53.892Z,10.30
2022-11-25T13:06:32.152Z,11.70
2022-11-25T13:09:31.164Z,12.97
2022-11-25T13:12:19.243Z,12.20
2022-11-25T13:15:05.773Z,9.87
2022-11-25T13:17:39.548Z,18.47
2022-11-25T13:20:28.285Z,14.40
2022-11-25T13:23:10.556Z,9.03
2022-11-25T13:25:40.907Z,13.20
2022-11-25T13:28:34.488Z,11.17
2022-11-25T13:31:13.763Z,9.27
2022-11-25T13:33:46.346Z,12.13
2022-11-25T13:36:21.851Z,13.63
2022-11-25T13:38:51.554Z,13.50
2022-11-25T13:41:24.095Z,7.57
2022-11-25T13:43:53.905Z,14.13
2022-11-25T13:46:45.531Z,17.60
2022-11-25T13:49:32.620Z,7.33
2022-11-25T13:52:28.265Z,18.93
2022-11-25T13:54:56.471Z,13.43
2022-11-25T13:57:23.231Z,10.40
2022-11-25T13:59:51.546Z,9.93
2022-11-25T14:02:27.062Z,15.67
2022-11-25T14:05:19.617Z,18.20
2022-11-25T14:08:10.198Z,15.77
2022-11-25T14:10:49.132Z,14.90
2022-11-25T14:13:49.742Z,15.13
2022-11-25T14:16:19.722Z,12.63
2022-11-25T14:21:57.162Z,12.67
2022-11-25T14:24:30.374Z,12.43
2022-11-25T14:27:00.557Z,11.83
2022-11-25T14:29:41.983Z,15.27
2022-11-25T14:32:27.866Z,13.97
2022-11-25T14:35:04.529Z,14.23
2022-11-25T14:37:58.192Z,13.27
2022-11-25T14:40:38.541Z,14.50
2022-11-25T14:43:13.789Z,10.87
2022-11-25T14:45:40.789Z,12.17
2022-11-25T14:48:19.862Z,12.40
2022-11-25T14:51:13.847Z,11.63
2022-11-25T14:53:48.951Z,19.17
2022-11-25T14:56:42.301Z,20.07
2022-11-25T14:59:10.603Z,13.60
2022-11-25T15:01:39.175Z,13.97
2022-11-25T15:04:19.675Z,12.40
2022-11-25T15:06:56.922Z,10.10
2022-11-25T15:09:39.086Z,16.90
2022-11-25T15:12:13.002Z,13.60
2022-11-25T15:14:43.383Z,11.60
2022-11-25T15:17:37.434Z,18.40
2022-11-25T15:20:13.294Z,15.93
2022-11-25T15:22:45.237Z,12.47
2022-11-25T15:25:15.179Z,11.23
2022-11-25T15:27:48.570Z,12.10
2022-11-25T15:30:27.142Z,17.23
2022-11-25T15:32:55.175Z,10.17
2022-11-25T15:35:27.213Z,17.83
2022-11-25T15:37:54.576Z,12.97
2022-11-25T15:40:42.003Z,13.57
2022-11-25T15:43:27.314Z,11.77
2022-11-25T15:46:01.949Z,16.57
2022-11-25T15:48:39.347Z,10.53
2022-11-25T15:51:19.951Z,17.13
2022-11-25T15:53:52.044Z,15.13
2022-11-25T15:56:22.581Z,10.97
2022-11-25T15:58:49.495Z,11.97
2022-11-25T16:01:17.166Z,9.80
2022-11-25T16:03:45.400Z,16.97
2022-11-25T16:06:52.129Z,14.67
2022-11-25T16:09:21.845Z,14.23
2022-11-25T16:11:48.815Z,15.27
2022-11-25T16:14:30.726Z,11.90
2022-11-25T16:17:03.014Z,16.33
2022-11-25T16:19:38.767Z,11.23
2022-11-25T16:22:06.072Z,20.83
2022-11-25T16:24:39.624Z,17.40
2022-11-25T16:27:24.833Z,16.50
2022-11-25T16:29:57.664Z,14.10
2022-11-25T16:32:30.458Z,13.93
2022-11-25T16:35:12.022Z,12.97
2022-11-25T16:37:40.165Z,11.53
2022-11-25T16:40:13.075Z,16.67
2022-11-25T16:42:40.329Z,13.30
2022-11-25T16:45:24.720Z,10.80
2022-11-25T16:47:51.557Z,17.03
2022-11-25T16:50:19.731Z,16.03
2022-11-25T16:52:46.551Z,11.83
2022-11-25T16:55:13.732Z,13.03
2022-11-25T16:57:42.380Z,17.93
2022-11-25T17:00:16.741Z,19.33
2022-11-25T17:02:44.956Z,17.13
2022-11-25T17:05:21.416Z,10.37
2022-11-25T17:07:50.296Z,14.67
2022-11-25T17:10:17.393Z,14.07
2022-11-25T17:12:46.008Z,15.37
2022-11-25T17:15:19.858Z,12.67
2022-11-25T17:17:47.938Z,12.40
2022-11-25T17:20:21.671Z,14.83
2022-11-25T17:22:48.937Z,17.00
2022-11-25T17:25:15.839Z,15.60
2022-11-25T17:27:46.213Z,18.40
2022-11-25T17:30:20.154Z,18.20
2022-11-25T17:32:48.075Z,19.17
2022-11-25T17:35:21.317Z,16.67
2022-11-25T17:37:48.677Z,17.73
2022-11-25T17:40:16.389Z,18.37
2022-11-25T17:42:44.284Z,14.67
2022-11-25T17:45:17.097Z,19.00
2022-11-25T17:47:47.478Z,18.93
2022-11-25T17:50:20.740Z,14.00
2022-11-25T17:52:48.932Z,14.97
2022-11-25T17:55:19.891Z,16.77
2022-11-25T17:57:48.457Z,19.57
2022-11-25T18:00:18.128Z,15.77
2022-11-25T18:02:44.940Z,14.13
2022-11-25T18:05:22.121Z,14.07
2022-11-25T18:07:49.461Z,23.40
2022-11-25T18:10:18.947Z,17.63
2022-11-25T18:12:47.224Z,15.57
2022-11-25T18:15:22.583Z,15.83
2022-11-25T18:17:50.595Z,10.40
2022-11-25T18:20:17.478Z,16.50
2022-11-25T18:22:47.425Z,18.43
2022-11-25T18:25:15.926Z,18.87
2022-11-25T18:27:43.858Z,17.97
2022-11-25T18:30:19.630Z,21.23
2022-11-25T18:32:47.519Z,19.63
2022-11-25T18:35:29.904Z,20.43
2022-11-25T18:38:00.210Z,15.60
2022-11-25T18:40:29.340Z,16.60
2022-11-25T18:43:00.356Z,16.10
2022-11-25T18:45:40.406Z,17.13
2022-11-25T18:48:18.163Z,17.07
2022-11-25T18:50:46.115Z,21.03
2022-11-25T18:53:13.403Z,11.20
2022-11-25T18:55:40.778Z,19.40
2022-11-25T18:58:33.913Z,18.17
2022-11-25T19:01:09.488Z,15.60
2022-11-25T19:03:36.390Z,20.43
2022-11-25T19:06:03.550Z,16.63
2022-11-25T19:08:30.306Z,17.97
2022-11-25T19:10:57.222Z,19.70
2022-11-25T19:13:31.690Z,18.80
2022-11-25T19:16:13.041Z,15.47
2022-11-25T19:18:40.439Z,17.83
2022-11-25T19:21:07.139Z,20.50
2022-11-25T19:23:36.180Z,12.53
2022-11-25T19:26:11.107Z,18.47
2022-11-25T19:28:37.992Z,19.93
2022-11-25T19:31:05.925Z,15.87
2022-11-25T19:33:38.749Z,15.07
2022-11-25T19:36:06.732Z,19.73
2022-11-25T19:38:34.944Z,14.00
2022-11-25T19:41:02.016Z,18.63
2022-11-25T19:43:28.780Z,22.77
2022-11-25T19:45:57.020Z,11.37
2022-11-25T19:48:27.171Z,18.03
2022-11-25T19:51:03.865Z,22.80
2022-11-25T19:53:34.168Z,14.07
2022-11-25T19:56:04.404Z,15.70
2022-11-25T19:58:32.149Z,14.87
2022-11-25T20:01:02.854Z,13.93
2022-11-25T20:03:30.907Z,13.33
2022-11-25T20:06:01.282Z,19.33
2022-11-25T20:08:29.131Z,18.50
2022-11-25T20:10:56.923Z,18.33
2022-11-25T20:13:25.867Z,16.13
2022-11-25T20:15:53.705Z,14.03
2022-11-25T20:18:23.428Z,14.93
2022-11-25T20:20:57.361Z,22.10
2022-11-25T20:23:38.571Z,13.63
2022-11-25T20:26:36.584Z,16.33
2022-11-25T20:29:15.313Z,16.10
2022-11-25T20:31:42.252Z,14.83
2022-11-25T20:34:09.280Z,15.13
2022-11-25T20:36:36.322Z,15.20
2022-11-25T20:39:04.005Z,14.70
2022-11-25T20:41:31.600Z,16.17
2022-11-25T20:43:58.486Z,11.93
2022-11-25T20:46:30.138Z,14.67
2022-11-25T20:49:01.651Z,21.47
2022-11-25T20:51:28.608Z,11.07
2022-11-25T20:54:02.911Z,14.20
2022-11-25T20:56:30.227Z,15.37
2022-11-25T20:58:57.025Z,17.47
2022-11-25T21:01:23.835Z,14.53
2022-11-25T21:03:50.861Z,13.40
2022-11-25T21:06:27.764Z,15.77
2022-11-25T21:08:56.329Z,16.00
2022-11-25T21:11:23.293Z,13.67
2022-11-25T21:13:50.438Z,20.60
2022-11-25T21:16:17.613Z,19.80
2022-11-25T21:18:44.612Z,12.73
2022-11-25T21:21:25.509Z,15.53
2022-11-25T21:23:54.372Z,19.70
2022-11-25T21:26:31.090Z,18.90
2022-11-25T21:28:58.323Z,20.83
2022-11-25T21:31:26.290Z,15.40
2022-11-25T21:34:01.119Z,17.47
2022-11-25T21:36:31.623Z,13.90
2022-11-25T21:39:25.064Z,15.53
2022-11-25T21:41:58.990Z,18.60
2022-11-25T21:44:31.484Z,17.10
2022-11-25T21:46:58.628Z,23.20
2022-11-25T21:49:26.735Z,22.70
2022-11-25T21:51:53.616Z,17.13
2022-11-25T21:54:23.527Z,15.53
2022-11-25T21:56:52.165Z,20.37
2022-11-25T21:59:20.533Z,20.83
2022-11-25T22:01:47.867Z,16.90
2022-11-25T22:04:20.567Z,16.93
2022-11-25T22:06:51.022Z,20.33
2022-11-25T22:09:18.066Z,20.80
2022-11-25T22:11:48.479Z,22.57
2022-11-25T22:14:28.757Z,17.20
2022-11-25T22:17:00.300Z,17.80
2022-11-25T22:19:32.444Z,15.33
2022-11-25T22:21:59.314Z,18.57
2022-11-25T22:24:28.751Z,15.60
2022-11-25T22:26:58.126Z,19.50
2022-11-25T22:29:34.899Z,15.60
2022-11-25T22:32:12.431Z,15.37
2022-11-25T22:34:42.463Z,16.43
2022-11-25T22:37:21.068Z,19.50
2022-11-25T22:39:48.476Z,18.83
2022-11-25T22:42:30.846Z,25.67
2022-11-25T22:45:00.557Z,19.33
2022-11-25T22:47:33.033Z,17.70
2022-11-25T22:50:02.484Z,23.23
2022-11-25T22:52:31.635Z,27.43
2022-11-25T22:55:02.097Z,20.27
2022-11-25T22:57:28.919Z,17.93
2022-11-25T22:59:55.663Z,18.90
2022-11-25T23:02:29.704Z,18.77
2022-11-25T23:04:56.887Z,20.47
2022-11-25T23:07:24.610Z,24.70
2022-11-25T23:09:52.290Z,18.80
2022-11-25T23:12:20.111Z,21.53
2022-11-25T23:14:46.853Z,22.03
2022-11-25T23:17:23.222Z,17.00
2022-11-25T23:19:51.158Z,19.33
2022-11-25T23:22:18.862Z,19.80
2022-11-25T23:24:47.590Z,19.57
2022-11-25T23:27:15.412Z,24.57
2022-11-25T23:29:42.293Z,22.50
2022-11-25T23:32:17.903Z,25.90
2022-11-25T23:34:45.285Z,24.80
2022-11-25T23:37:14.905Z,21.00
2022-11-25T23:39:43.797Z,24.80
2022-11-25T23:42:18.525Z,24.57
2022-11-25T23:44:45.876Z,19.50
2022-11-25T23:47:20.273Z,22.03
2022-11-25T23:49:50.187Z,26.40
2022-11-25T23:52:24.280Z,23.80
2022-11-25T23:54:52.558Z,22.40
2022-11-25T23:57:27.754Z,21.87
2022-11-25T23:59:54.494Z,19.10
